createdAt,value
2023-05-04T00:02:05.066Z,18.08
2023-05-04T00:04:31.519Z,17.13
2023-05-04T00:06:58.478Z,17.52
2023-05-04T00:09:24.880Z,17.42
2023-05-04T00:11:51.687Z,18.52
2023-05-04T00:14:18.003Z,17.88
2023-05-04T00:16:44.402Z,18.90
2023-05-04T00:19:11.221Z,19.42
2023-05-04T00:21:37.638Z,18.85
2023-05-04T00:24:05.397Z,19.15
2023-05-04T00:26:31.728Z,18.55
2023-05-04T00:28:58.042Z,19.52
2023-05-04T00:31:24.439Z,20.05
2023-05-04T00:33:50.932Z,19.85
2023-05-04T00:36:17.202Z,19.42
2023-05-04T00:38:48.139Z,19.65
2023-05-04T00:41:15.378Z,18.58
2023-05-04T00:43:41.699Z,17.70
2023-05-04T00:46:08.428Z,17.35
2023-05-04T00:48:35.566Z,17.65
2023-05-04T00:51:02.973Z,18.25
2023-05-04T00:53:29.520Z,17.35
2023-05-04T00:55:55.979Z,18.60
2023-05-04T00:58:24.082Z,19.65
2023-05-04T01:00:50.929Z,19.25
2023-05-04T01:03:17.810Z,18.42
2023-05-04T01:05:52.033Z,18.88
2023-05-04T01:08:27.065Z,18.17
2023-05-04T01:10:57.780Z,18.65
2023-05-04T01:13:25.632Z,19.48
2023-05-04T01:15:52.240Z,18.58
2023-05-04T01:18:18.616Z,19.42
2023-05-04T01:20:44.909Z,18.95
2023-05-04T01:23:12.158Z,18.85
2023-05-04T01:25:44.040Z,18.80
2023-05-04T01:28:17.814Z,18.48
2023-05-04T01:30:46.751Z,17.73
2023-05-04T01:33:13.654Z,18.60
2023-05-04T01:35:40.162Z,18.45
2023-05-04T01:38:06.806Z,18.85
2023-05-04T01:40:33.761Z,18.23
2023-05-04T01:43:00.356Z,18.40
2023-05-04T01:45:26.667Z,18.40
2023-05-04T01:47:53.056Z,18.05
2023-05-04T01:50:19.352Z,17.30
2023-05-04T01:52:45.662Z,15.23
2023-05-04T01:55:11.978Z,17.23
2023-05-04T01:57:38.911Z,16.98
2023-05-04T02:00:06.433Z,15.52
2023-05-04T02:02:32.993Z,16.13
2023-05-04T02:04:59.352Z,15.52
2023-05-04T02:07:25.743Z,17.42
2023-05-04T02:09:53.612Z,16.55
2023-05-04T02:12:19.928Z,16.10
2023-05-04T02:14:46.910Z,16.73
2023-05-04T02:17:13.199Z,16.33
2023-05-04T02:19:39.535Z,17.00
2023-05-04T02:22:05.882Z,16.65
2023-05-04T02:24:32.173Z,16.30
2023-05-04T02:26:58.462Z,16.33
2023-05-04T02:29:25.165Z,16.85
2023-05-04T02:31:52.218Z,16.38
2023-05-04T02:34:18.552Z,16.60
2023-05-04T02:36:44.925Z,15.80
2023-05-04T02:39:11.215Z,16.40
2023-05-04T02:41:37.527Z,18.02
2023-05-04T02:44:04.260Z,17.02
2023-05-04T02:46:31.681Z,18.55
2023-05-04T02:48:58.690Z,17.55
2023-05-04T02:51:24.992Z,17.98
2023-05-04T02:53:51.311Z,16.90
2023-05-04T02:56:17.594Z,18.10
2023-05-04T02:58:43.951Z,18.25
2023-05-04T03:01:10.360Z,19.40
2023-05-04T03:03:36.700Z,18.95
2023-05-04T03:06:03.991Z,18.40
2023-05-04T03:08:30.445Z,18.33
2023-05-04T03:10:56.771Z,18.08
2023-05-04T03:13:23.407Z,17.42
2023-05-04T03:15:49.735Z,17.00
2023-05-04T03:18:16.077Z,17.23
2023-05-04T03:20:42.686Z,17.02
2023-05-04T03:23:09.673Z,17.10
2023-05-04T03:25:36.162Z,17.48
2023-05-04T03:28:02.553Z,17.30
2023-05-04T03:30:28.878Z,18.75
2023-05-04T03:32:55.307Z,19.58
2023-05-04T03:35:25.038Z,17.80
2023-05-04T03:37:51.691Z,18.25
2023-05-04T03:40:22.141Z,18.23
2023-05-04T03:42:48.476Z,19.42
2023-05-04T03:45:15.233Z,19.63
2023-05-04T03:47:41.639Z,18.45
2023-05-04T03:50:09.160Z,17.70
2023-05-04T03:52:35.618Z,17.75
2023-05-04T03:55:01.992Z,18.13
2023-05-04T03:57:28.968Z,17.15
2023-05-04T04:00:01.365Z,18.45
2023-05-04T04:02:27.775Z,17.58
2023-05-04T04:04:54.128Z,16.90
2023-05-04T04:07:20.662Z,16.10
2023-05-04T04:09:46.985Z,15.57
2023-05-04T04:12:15.322Z,16.73
2023-05-04T04:14:42.284Z,17.70
2023-05-04T04:17:08.628Z,16.52
2023-05-04T04:19:35.071Z,16.30
2023-05-04T04:22:01.377Z,18.33
2023-05-04T04:24:27.897Z,17.02
2023-05-04T04:26:54.239Z,16.65
2023-05-04T04:29:20.601Z,17.63
2023-05-04T04:31:47.550Z,16.73
2023-05-04T04:34:13.880Z,16.30
2023-05-04T04:36:40.194Z,16.52
2023-05-04T04:39:06.529Z,16.23
2023-05-04T04:41:32.818Z,17.58
2023-05-04T04:43:59.418Z,18.88
2023-05-04T04:46:27.223Z,19.05
2023-05-04T04:48:54.820Z,19.73
2023-05-04T04:51:21.339Z,19.00
2023-05-04T04:53:47.685Z,19.25
2023-05-04T04:56:13.974Z,19.27
2023-05-04T04:58:40.741Z,19.88
2023-05-04T05:01:10.514Z,20.75
2023-05-04T05:03:36.864Z,19.40
2023-05-04T05:06:04.053Z,21.25
2023-05-04T05:08:32.757Z,20.58
2023-05-04T05:10:59.035Z,21.42
2023-05-04T05:13:25.342Z,20.60
2023-05-04T05:15:51.680Z,21.58
2023-05-04T05:18:17.988Z,21.95
2023-05-04T05:20:44.365Z,21.55
2023-05-04T05:23:11.261Z,21.40
2023-05-04T05:25:38.076Z,21.50
2023-05-04T05:28:05.385Z,21.08
2023-05-04T05:30:31.861Z,23.10
2023-05-04T05:32:58.295Z,25.20
2023-05-04T05:35:24.608Z,26.48
2023-05-04T05:37:51.214Z,25.70
2023-05-04T05:40:18.572Z,28.63
2023-05-04T05:42:44.871Z,27.52
2023-05-04T05:45:11.384Z,27.38
2023-05-04T05:47:37.823Z,28.98
2023-05-04T05:50:04.877Z,28.15
2023-05-04T05:52:31.594Z,29.52
2023-05-04T05:54:58.866Z,29.80
2023-05-04T05:57:27.379Z,29.15
2023-05-04T05:59:54.528Z,28.23
2023-05-04T06:02:20.943Z,26.27
2023-05-04T06:04:47.402Z,27.23
2023-05-04T06:07:13.754Z,26.05
2023-05-04T06:09:40.208Z,26.65
2023-05-04T06:12:11.553Z,27.02
2023-05-04T06:14:38.680Z,25.63
2023-05-04T06:17:04.993Z,24.38
2023-05-04T06:19:34.335Z,23.90
2023-05-04T06:22:00.617Z,25.33
2023-05-04T06:24:26.930Z,23.90
2023-05-04T06:26:53.240Z,22.40
2023-05-04T06:29:19.528Z,22.52
2023-05-04T06:31:48.181Z,21.70
2023-05-04T06:34:16.439Z,21.48
2023-05-04T06:36:42.740Z,19.75
2023-05-04T06:39:09.093Z,20.48
2023-05-04T06:41:36.316Z,17.92
2023-05-04T06:44:04.202Z,17.83
2023-05-04T06:46:30.755Z,18.13
2023-05-04T06:48:57.786Z,18.55
2023-05-04T06:51:24.045Z,19.80
2023-05-04T06:53:50.371Z,78.10
2023-05-04T06:56:16.706Z,21.35
2023-05-04T06:58:43.026Z,17.42
2023-05-04T07:01:10.498Z,16.77
2023-05-04T07:03:36.907Z,15.73
2023-05-04T07:06:04.131Z,15.43
2023-05-04T07:08:30.579Z,14.93
2023-05-04T07:10:56.851Z,14.27
2023-05-04T07:13:23.834Z,14.80
2023-05-04T07:15:50.153Z,15.23
2023-05-04T07:18:16.484Z,13.70
2023-05-04T07:20:42.835Z,13.43
2023-05-04T07:23:09.833Z,14.30
2023-05-04T07:25:36.132Z,13.70
2023-05-04T07:28:03.777Z,14.32
2023-05-04T07:30:30.112Z,13.90
2023-05-04T07:32:56.503Z,12.70
2023-05-04T07:35:22.992Z,12.35
2023-05-04T07:37:49.985Z,11.48
2023-05-04T07:40:17.104Z,11.63
2023-05-04T07:42:43.408Z,10.55
2023-05-04T07:45:12.060Z,10.07
2023-05-04T07:47:38.404Z,9.75
2023-05-04T07:50:05.563Z,8.57
2023-05-04T07:52:32.735Z,8.75
2023-05-04T07:54:59.057Z,9.45
2023-05-04T07:57:26.082Z,8.57
2023-05-04T07:59:53.830Z,7.78
2023-05-04T08:02:20.237Z,7.38
2023-05-04T08:04:46.596Z,7.80
2023-05-04T08:07:14.875Z,7.82
2023-05-04T08:09:41.210Z,7.63
2023-05-04T08:12:08.009Z,7.05
2023-05-04T08:14:36.228Z,7.72
2023-05-04T08:17:04.355Z,7.95
2023-05-04T08:19:30.657Z,7.45
2023-05-04T08:21:57.000Z,7.32
2023-05-04T08:24:23.316Z,7.63
2023-05-04T08:26:59.756Z,7.28
2023-05-04T08:29:31.041Z,6.97
2023-05-04T08:31:58.610Z,6.82
2023-05-04T08:34:25.049Z,5.72
2023-05-04T08:36:52.027Z,6.47
2023-05-04T08:39:18.406Z,6.70
2023-05-04T08:41:44.740Z,6.22
2023-05-04T08:44:11.408Z,6.97
2023-05-04T08:46:39.609Z,5.93
2023-05-04T08:49:06.912Z,6.05
2023-05-04T08:51:36.244Z,6.65
2023-05-04T08:54:06.084Z,6.65
2023-05-04T08:56:32.488Z,7.50
2023-05-04T08:59:01.142Z,7.20
2023-05-04T09:01:29.560Z,5.80
2023-05-04T09:03:57.535Z,6.28
2023-05-04T09:06:25.103Z,6.20
2023-05-04T09:08:51.429Z,6.90
2023-05-04T09:11:17.750Z,7.18
2023-05-04T09:13:44.066Z,7.15
2023-05-04T09:16:10.823Z,6.88
2023-05-04T09:18:38.393Z,7.95
2023-05-04T09:21:04.956Z,6.32
2023-05-04T09:23:32.571Z,7.82
2023-05-04T09:25:58.973Z,6.38
2023-05-04T09:28:34.516Z,6.90
2023-05-04T09:33:27.534Z,6.90
2023-05-04T09:35:56.498Z,7.47
2023-05-04T09:38:26.312Z,7.35
2023-05-04T09:40:53.281Z,6.78
2023-05-04T09:43:19.691Z,7.07
2023-05-04T09:45:47.626Z,7.18
2023-05-04T09:48:18.243Z,6.60
2023-05-04T09:50:51.435Z,6.85
2023-05-04T09:53:21.467Z,6.40
2023-05-04T09:55:54.729Z,6.10
2023-05-04T09:58:23.206Z,6.60
2023-05-04T10:00:49.544Z,6.72
2023-05-04T10:03:15.991Z,7.47
2023-05-04T10:05:42.610Z,6.03
2023-05-04T10:08:09.431Z,5.80
2023-05-04T10:10:38.283Z,6.40
2023-05-04T10:13:04.787Z,5.82
2023-05-04T10:15:32.426Z,6.13
2023-05-04T10:18:10.232Z,5.40
2023-05-04T10:20:56.530Z,5.22
2023-05-04T10:23:46.860Z,4.85
2023-05-04T10:26:29.199Z,4.32
2023-05-04T10:29:11.340Z,5.72
2023-05-04T10:31:39.615Z,5.15
2023-05-04T10:34:06.267Z,5.07
2023-05-04T10:36:37.334Z,4.50
2023-05-04T10:39:03.926Z,4.85
2023-05-04T10:41:30.806Z,4.93
2023-05-04T10:44:03.031Z,4.55
2023-05-04T10:46:31.253Z,4.72
2023-05-04T10:48:58.299Z,4.47
2023-05-04T10:51:32.614Z,3.80
2023-05-04T10:54:02.555Z,4.13
2023-05-04T10:56:29.600Z,3.78
2023-05-04T10:58:56.377Z,3.70
2023-05-04T11:01:23.255Z,4.80
2023-05-04T11:03:51.290Z,3.55
2023-05-04T11:06:23.395Z,4.20
2023-05-04T11:08:59.366Z,3.95
2023-05-04T11:11:26.590Z,4.45
2023-05-04T11:13:53.921Z,3.72
2023-05-04T11:16:23.048Z,4.00
2023-05-04T11:18:53.597Z,3.35
2023-05-04T11:21:24.305Z,3.20
2023-05-04T11:23:54.486Z,3.60
2023-05-04T11:26:20.857Z,4.30
2023-05-04T11:28:47.136Z,3.75
2023-05-04T11:31:13.951Z,4.45
2023-05-04T11:33:45.558Z,4.78
2023-05-04T11:36:12.542Z,3.95
2023-05-04T11:38:39.522Z,3.85
2023-05-04T11:41:06.141Z,3.50
2023-05-04T11:43:33.158Z,3.70
2023-05-04T11:46:00.426Z,3.85
2023-05-04T11:48:27.569Z,3.88
2023-05-04T11:50:54.775Z,3.70
2023-05-04T11:53:24.003Z,3.72
2023-05-04T11:55:55.412Z,3.95
2023-05-04T11:58:25.117Z,4.15
2023-05-04T12:00:55.961Z,3.80
2023-05-04T12:03:27.978Z,3.65
2023-05-04T12:06:02.484Z,3.97
2023-05-04T12:08:33.233Z,3.35
2023-05-04T12:11:11.970Z,3.58
2023-05-04T12:13:39.110Z,3.33
2023-05-04T12:16:09.463Z,3.60
2023-05-04T12:18:35.987Z,4.22
2023-05-04T12:21:12.874Z,3.88
2023-05-04T12:23:39.774Z,3.70
2023-05-04T12:26:06.886Z,3.47
2023-05-04T12:28:34.625Z,4.38
2023-05-04T12:31:01.035Z,4.03
2023-05-04T12:33:27.515Z,4.15
2023-05-04T12:35:53.774Z,4.18
2023-05-04T12:38:20.489Z,4.30
2023-05-04T12:40:46.972Z,4.10
2023-05-04T12:43:13.287Z,4.55
2023-05-04T12:45:40.229Z,4.70
2023-05-04T12:48:06.613Z,3.90
2023-05-04T12:50:32.952Z,3.60
2023-05-04T12:52:59.282Z,4.03
2023-05-04T12:55:25.713Z,4.05
2023-05-04T12:57:52.007Z,4.18
2023-05-04T13:00:21.893Z,3.95
2023-05-04T13:02:48.932Z,3.25
2023-05-04T13:05:16.146Z,4.80
2023-05-04T13:07:43.692Z,3.90
2023-05-04T13:10:10.759Z,4.00
2023-05-04T13:12:38.559Z,4.70
2023-05-04T13:15:05.867Z,4.20
2023-05-04T13:17:33.135Z,4.90
2023-05-04T13:20:01.055Z,5.00
2023-05-04T13:22:28.201Z,4.65
2023-05-04T13:24:54.564Z,4.20
2023-05-04T13:27:20.887Z,5.15
2023-05-04T13:29:47.180Z,4.80
2023-05-04T13:32:13.560Z,4.25
2023-05-04T13:34:42.460Z,4.18
2023-05-04T13:37:11.665Z,4.03
2023-05-04T13:39:40.191Z,4.43
2023-05-04T13:42:06.719Z,5.68
2023-05-04T13:44:33.306Z,5.93
2023-05-04T13:47:01.821Z,5.32
2023-05-04T13:49:28.197Z,4.57
2023-05-04T13:51:54.750Z,5.03
2023-05-04T13:54:22.003Z,4.30
2023-05-04T13:56:48.424Z,4.78
2023-05-04T13:59:14.815Z,4.63
2023-05-04T14:01:41.226Z,5.00
2023-05-04T14:04:07.612Z,4.78
2023-05-04T14:06:33.914Z,4.15
2023-05-04T14:09:00.205Z,5.05
2023-05-04T14:11:27.123Z,4.90
2023-05-04T14:13:54.870Z,4.57
2023-05-04T14:16:21.974Z,4.13
2023-05-04T14:18:48.495Z,3.97
2023-05-04T14:21:14.933Z,3.85
2023-05-04T14:23:41.541Z,4.78
2023-05-04T14:26:07.821Z,4.53
2023-05-04T14:28:34.782Z,4.10
2023-05-04T14:31:07.982Z,3.78
2023-05-04T14:33:34.732Z,4.45
2023-05-04T14:36:01.124Z,4.22
2023-05-04T14:38:27.781Z,4.80
2023-05-04T14:40:54.664Z,3.30
2023-05-04T14:43:21.019Z,3.50
2023-05-04T14:45:48.000Z,3.60
2023-05-04T14:48:14.571Z,4.18
2023-05-04T14:50:41.289Z,3.72
2023-05-04T14:53:07.876Z,3.50
2023-05-04T14:55:39.056Z,4.68
2023-05-04T14:58:05.358Z,3.97
2023-05-04T15:00:31.740Z,4.00
2023-05-04T15:02:58.715Z,4.72
2023-05-04T15:05:25.042Z,4.30
2023-05-04T15:07:51.338Z,4.55
2023-05-04T15:10:17.705Z,4.47
2023-05-04T15:12:44.026Z,4.00
2023-05-04T15:15:11.920Z,4.00
2023-05-04T15:17:38.241Z,3.80
2023-05-04T15:20:06.919Z,5.00
2023-05-04T15:22:36.129Z,4.80
2023-05-04T15:25:02.787Z,4.45
2023-05-04T15:27:29.073Z,4.30
2023-05-04T15:29:55.350Z,4.43
2023-05-04T15:32:21.680Z,4.00
2023-05-04T15:35:01.111Z,4.43
2023-05-04T15:37:31.228Z,4.18
2023-05-04T15:39:59.053Z,4.25
2023-05-04T15:42:26.745Z,4.22
2023-05-04T15:44:53.026Z,4.13
2023-05-04T15:47:19.301Z,3.83
2023-05-04T15:49:45.654Z,5.40
2023-05-04T15:52:11.954Z,4.75
2023-05-04T15:54:38.960Z,4.80
2023-05-04T15:57:05.387Z,4.68
2023-05-04T15:59:31.691Z,4.30
2023-05-04T16:01:57.992Z,4.13
2023-05-04T16:04:24.365Z,4.40
2023-05-04T16:06:50.670Z,4.13
2023-05-04T16:09:19.367Z,5.15
2023-05-04T16:11:46.335Z,4.68
2023-05-04T16:14:13.430Z,4.50
2023-05-04T16:16:40.678Z,4.30
2023-05-04T16:19:08.959Z,5.00
2023-05-04T16:21:37.211Z,4.63
2023-05-04T16:24:04.081Z,3.70
2023-05-04T16:26:30.472Z,4.28
2023-05-04T16:28:57.417Z,3.95
2023-05-04T16:31:23.730Z,4.55
2023-05-04T16:33:50.168Z,4.88
2023-05-04T16:36:16.529Z,4.47
2023-05-04T16:38:42.868Z,4.57
2023-05-04T16:41:09.225Z,4.65
2023-05-04T16:43:35.626Z,30.35
2023-05-04T16:46:03.696Z,40.67
2023-05-04T16:48:30.078Z,4.13
2023-05-04T16:50:56.389Z,4.88
2023-05-04T16:53:22.964Z,12.60
2023-05-04T16:55:50.199Z,5.70
2023-05-04T16:58:16.495Z,19.88
2023-05-04T17:00:43.036Z,8.45
2023-05-04T17:03:10.072Z,5.60
2023-05-04T17:05:36.519Z,4.25
2023-05-04T17:08:02.904Z,3.92
2023-05-04T17:10:29.201Z,3.78
2023-05-04T17:12:55.787Z,4.18
2023-05-04T17:15:22.477Z,7.65
2023-05-04T17:17:48.874Z,4.43
2023-05-04T17:20:15.870Z,5.65
2023-05-04T17:22:42.732Z,15.05
2023-05-04T17:25:10.096Z,4.30
2023-05-04T17:27:36.425Z,4.03
2023-05-04T17:30:03.133Z,4.10
2023-05-04T17:32:29.969Z,4.50
2023-05-04T17:34:56.739Z,4.40
2023-05-04T17:37:23.809Z,4.35
2023-05-04T17:39:50.147Z,4.35
2023-05-04T17:42:16.474Z,5.00
2023-05-04T17:44:42.922Z,4.95
2023-05-04T17:47:09.443Z,4.80
2023-05-04T17:49:35.820Z,4.78
2023-05-04T17:52:02.229Z,5.07
2023-05-04T17:54:29.204Z,4.75
2023-05-04T17:56:55.534Z,4.97
2023-05-04T17:59:21.860Z,5.65
2023-05-04T18:01:48.220Z,5.40
2023-05-04T18:04:14.963Z,5.70
2023-05-04T18:06:41.884Z,5.50
2023-05-04T18:09:08.161Z,5.75
2023-05-04T18:11:35.190Z,5.88
2023-05-04T18:14:01.487Z,5.60
2023-05-04T18:16:27.885Z,6.00
2023-05-04T18:18:55.295Z,5.72
2023-05-04T18:21:22.710Z,5.53
2023-05-04T18:23:49.110Z,4.90
2023-05-04T18:26:19.134Z,4.80
2023-05-04T18:28:46.125Z,5.80
2023-05-04T18:31:12.449Z,5.45
2023-05-04T18:33:38.763Z,5.40
2023-05-04T18:36:05.652Z,5.00
2023-05-04T18:38:33.077Z,7.57
2023-05-04T18:40:59.397Z,10.70
2023-05-04T18:43:25.692Z,9.98
2023-05-04T18:45:52.686Z,5.95
2023-05-04T18:48:19.016Z,6.05
2023-05-04T18:50:50.643Z,4.60
2023-05-04T18:53:17.017Z,5.30
2023-05-04T18:55:43.310Z,5.53
2023-05-04T18:58:09.879Z,4.90
2023-05-04T19:00:36.379Z,5.05
2023-05-04T19:03:03.494Z,4.90
2023-05-04T19:05:29.817Z,5.53
2023-05-04T19:07:56.106Z,4.88
2023-05-04T19:10:22.480Z,4.80
2023-05-04T19:12:50.225Z,5.30
2023-05-04T19:15:16.565Z,4.70
2023-05-04T19:17:42.919Z,5.20
2023-05-04T19:20:10.748Z,5.47
2023-05-04T19:22:37.084Z,5.22
2023-05-04T19:25:03.940Z,5.30
2023-05-04T19:27:30.376Z,4.88
2023-05-04T19:29:56.679Z,5.32
2023-05-04T19:32:25.024Z,5.50
2023-05-04T19:34:52.146Z,5.43
2023-05-04T19:37:21.769Z,13.00
2023-05-04T19:39:48.136Z,15.77
2023-05-04T19:42:14.479Z,6.82
2023-05-04T19:44:40.807Z,5.32
2023-05-04T19:47:08.266Z,5.13
2023-05-04T19:49:34.686Z,4.90
2023-05-04T19:52:01.019Z,5.97
2023-05-04T19:54:27.974Z,4.95
2023-05-04T19:56:54.258Z,5.20
2023-05-04T19:59:20.551Z,6.15
2023-05-04T20:01:46.927Z,5.80
2023-05-04T20:04:13.269Z,5.63
2023-05-04T20:06:39.553Z,5.65
2023-05-04T20:09:06.046Z,5.65
2023-05-04T20:11:33.021Z,6.15
2023-05-04T20:13:59.432Z,5.50
2023-05-04T20:16:26.318Z,5.85
2023-05-04T20:18:52.824Z,5.75
2023-05-04T20:21:19.120Z,5.50
2023-05-04T20:23:45.622Z,5.90
2023-05-04T20:26:12.004Z,6.68
2023-05-04T20:28:39.024Z,6.22
2023-05-04T20:31:06.775Z,6.13
2023-05-04T20:33:33.050Z,5.60
2023-05-04T20:35:59.358Z,5.90
2023-05-04T20:38:25.686Z,6.10
2023-05-04T20:40:52.613Z,5.97
2023-05-04T20:43:19.211Z,6.20
2023-05-04T20:45:46.487Z,6.30
2023-05-04T20:48:12.879Z,6.13
2023-05-04T20:50:39.590Z,6.43
2023-05-04T20:53:05.945Z,6.63
2023-05-04T20:55:32.289Z,6.70
2023-05-04T20:57:58.581Z,6.50
2023-05-04T21:00:25.568Z,6.35
2023-05-04T21:02:52.655Z,6.45
2023-05-04T21:05:19.080Z,5.90
2023-05-04T21:07:45.796Z,6.50
2023-05-04T21:10:12.092Z,6.70
2023-05-04T21:12:38.407Z,6.32
2023-05-04T21:15:05.463Z,7.05
2023-05-04T21:17:31.849Z,6.00
2023-05-04T21:19:58.950Z,6.75
2023-05-04T21:22:26.441Z,6.60
2023-05-04T21:24:52.755Z,6.97
2023-05-04T21:27:19.038Z,6.35
2023-05-04T21:29:45.490Z,6.95
2023-05-04T21:32:11.873Z,6.82
2023-05-04T21:34:38.166Z,5.95
2023-05-04T21:37:05.146Z,7.00
2023-05-04T21:39:31.405Z,6.65
2023-05-04T21:41:57.708Z,7.65
2023-05-04T21:44:24.030Z,7.45
2023-05-04T21:46:51.053Z,7.68
2023-05-04T21:49:17.382Z,6.90
2023-05-04T21:51:43.678Z,7.28
2023-05-04T21:54:10.645Z,7.03
2023-05-04T21:56:39.425Z,7.05
2023-05-04T21:59:05.698Z,6.68
2023-05-04T22:01:32.139Z,8.00
2023-05-04T22:03:58.439Z,6.90
2023-05-04T22:06:25.174Z,7.65
2023-05-04T22:08:51.548Z,7.15
2023-05-04T22:11:18.550Z,7.60
2023-05-04T22:13:44.857Z,6.78
2023-05-04T22:16:11.188Z,7.63
2023-05-04T22:18:38.019Z,7.28
2023-05-04T22:21:04.292Z,7.75
2023-05-04T22:23:30.599Z,7.35
2023-05-04T22:25:56.915Z,8.38
2023-05-04T22:28:23.884Z,7.35
2023-05-04T22:30:50.320Z,7.57
2023-05-04T22:33:16.667Z,7.55
2023-05-04T22:35:43.097Z,7.28
2023-05-04T22:38:09.407Z,7.65
2023-05-04T22:40:39.831Z,7.53
2023-05-04T22:43:06.806Z,7.22
2023-05-04T22:45:35.598Z,7.90
2023-05-04T22:48:02.003Z,7.20
2023-05-04T22:50:28.298Z,7.45
2023-05-04T23:00:51.973Z,8.10
2023-05-04T23:03:18.559Z,7.97
2023-05-04T23:05:44.984Z,7.75
2023-05-04T23:08:11.311Z,7.68
2023-05-04T23:10:37.609Z,8.15
2023-05-04T23:13:03.980Z,8.13
2023-05-04T23:15:31.951Z,7.55
2023-05-04T23:17:58.282Z,8.07
2023-05-04T23:20:25.028Z,7.68
2023-05-04T23:22:51.388Z,7.32
2023-05-04T23:25:17.842Z,7.88
2023-05-04T23:27:44.551Z,7.63
2023-05-04T23:30:11.252Z,7.57
2023-05-04T23:32:38.325Z,8.10
2023-05-04T23:35:05.664Z,8.23
2023-05-04T23:37:32.064Z,7.82
2023-05-04T23:39:58.488Z,8.20
2023-05-04T23:42:25.763Z,8.00
2023-05-04T23:44:53.906Z,8.70
2023-05-04T23:47:20.326Z,8.48
2023-05-04T23:49:47.266Z,8.60
2023-05-04T23:52:13.570Z,7.75
2023-05-04T23:54:39.828Z,8.40
2023-05-04T23:57:07.542Z,7.90
2023-05-04T23:59:33.945Z,8.27
